createdAt,value
2022-11-14T00:00:43.094Z,41.03
2022-11-14T00:03:28.344Z,40.07
2022-11-14T00:06:13.860Z,41.23
2022-11-14T00:08:59.090Z,42.03
2022-11-14T00:11:44.086Z,40.77
2022-11-14T00:14:29.177Z,40.00
2022-11-14T00:17:14.780Z,41.67
2022-11-14T00:19:59.497Z,40.43
2022-11-14T00:22:44.930Z,39.63
2022-11-14T00:25:30.234Z,40.27
2022-11-14T00:28:15.700Z,41.50
2022-11-14T00:31:00.454Z,40.57
2022-11-14T00:33:45.961Z,40.90
2022-11-14T00:36:31.236Z,39.33
2022-11-14T00:39:16.670Z,39.57
2022-11-14T00:42:03.271Z,38.67
2022-11-14T00:44:49.141Z,41.17
2022-11-14T00:47:34.147Z,39.77
2022-11-14T00:50:19.432Z,38.97
2022-11-14T00:53:04.706Z,39.77
2022-11-14T00:55:49.913Z,39.43
2022-11-14T00:58:34.849Z,38.53
2022-11-14T01:01:20.053Z,38.13
2022-11-14T01:04:05.414Z,38.40
2022-11-14T01:06:50.598Z,37.53
2022-11-14T01:09:35.867Z,39.13
2022-11-14T01:12:20.934Z,38.70
2022-11-14T01:15:06.846Z,40.73
2022-11-14T01:17:51.970Z,40.60
2022-11-14T01:20:42.356Z,41.13
2022-11-14T01:23:27.696Z,37.87
2022-11-14T01:26:14.384Z,38.43
2022-11-14T01:28:59.484Z,38.60
2022-11-14T01:31:44.896Z,38.30
2022-11-14T01:34:30.149Z,38.93
2022-11-14T01:37:15.431Z,37.07
2022-11-14T01:40:00.579Z,36.10
2022-11-14T01:43:11.487Z,33.97
2022-11-14T01:46:01.941Z,35.00
2022-11-14T01:49:03.412Z,36.17
2022-11-14T01:51:55.819Z,36.17
2022-11-14T01:54:48.315Z,35.93
2022-11-14T01:57:38.435Z,35.13
2022-11-14T02:00:23.381Z,35.80
2022-11-14T02:03:08.216Z,33.87
2022-11-14T02:05:54.361Z,35.70
2022-11-14T02:08:40.677Z,35.37
2022-11-14T02:11:28.701Z,35.13
2022-11-14T02:14:14.186Z,36.97
2022-11-14T02:17:22.575Z,35.67
2022-11-14T02:20:10.532Z,34.17
2022-11-14T02:22:55.797Z,34.13
2022-11-14T02:25:41.234Z,34.50
2022-11-14T02:28:27.506Z,34.43
2022-11-14T02:31:14.156Z,33.83
2022-11-14T02:33:59.084Z,34.33
2022-11-14T02:36:44.193Z,34.50
2022-11-14T02:39:29.393Z,35.17
2022-11-14T02:42:14.624Z,34.20
2022-11-14T02:45:00.128Z,36.83
2022-11-14T02:47:46.856Z,34.73
2022-11-14T02:50:32.031Z,35.97
2022-11-14T02:53:17.270Z,35.17
2022-11-14T02:56:02.379Z,34.87
2022-11-14T02:58:47.669Z,34.73
2022-11-14T03:01:33.047Z,33.80
2022-11-14T03:04:18.047Z,33.87
2022-11-14T03:07:03.330Z,33.13
2022-11-14T03:09:49.398Z,31.97
2022-11-14T03:12:34.188Z,31.83
2022-11-14T03:15:19.481Z,32.83
2022-11-14T03:18:04.756Z,33.47
2022-11-14T03:20:49.700Z,32.73
2022-11-14T03:23:34.608Z,32.43
2022-11-14T03:26:19.605Z,33.00
2022-11-14T03:29:04.776Z,33.63
2022-11-14T03:31:50.079Z,33.50
2022-11-14T03:34:35.245Z,32.17
2022-11-14T03:37:20.052Z,32.93
2022-11-14T03:40:06.101Z,31.90
2022-11-14T03:42:51.129Z,32.03
2022-11-14T03:45:37.733Z,31.37
2022-11-14T03:48:22.438Z,32.20
2022-11-14T03:51:07.899Z,31.30
2022-11-14T03:53:53.564Z,31.10
2022-11-14T03:56:38.551Z,31.70
2022-11-14T03:59:23.623Z,31.83
2022-11-14T04:02:09.078Z,30.30
2022-11-14T04:04:54.097Z,33.10
2022-11-14T04:07:39.574Z,30.83
2022-11-14T04:10:24.676Z,33.97
2022-11-14T04:13:09.714Z,32.33
2022-11-14T04:15:59.043Z,32.17
2022-11-14T04:18:44.313Z,34.50
2022-11-14T04:21:29.225Z,34.53
2022-11-14T04:24:14.411Z,33.27
2022-11-14T04:26:59.659Z,33.67
2022-11-14T04:29:44.620Z,33.87
2022-11-14T04:32:29.649Z,35.40
2022-11-14T04:35:14.528Z,36.70
2022-11-14T04:37:59.563Z,34.10
2022-11-14T04:40:53.896Z,35.57
2022-11-14T04:43:38.924Z,34.90
2022-11-14T04:46:24.188Z,35.57
2022-11-14T04:49:09.358Z,36.17
2022-11-14T04:51:54.403Z,35.37
2022-11-14T04:54:39.748Z,33.00
2022-11-14T04:57:25.088Z,34.50
2022-11-14T05:00:10.793Z,33.50
2022-11-14T05:02:58.684Z,32.90
2022-11-14T05:05:44.178Z,31.17
2022-11-14T05:08:29.799Z,30.10
2022-11-14T05:11:16.404Z,30.57
2022-11-14T05:14:02.831Z,31.13
2022-11-14T05:16:47.848Z,29.97
2022-11-14T05:19:33.155Z,31.93
2022-11-14T05:22:18.291Z,32.83
2022-11-14T05:25:03.642Z,32.13
2022-11-14T05:27:48.991Z,32.10
2022-11-14T05:30:34.165Z,32.43
2022-11-14T05:33:19.025Z,32.57
2022-11-14T05:36:04.759Z,31.33
2022-11-14T05:38:49.901Z,32.80
2022-11-14T05:41:34.765Z,31.97
2022-11-14T05:44:20.026Z,31.33
2022-11-14T05:47:05.226Z,30.77
2022-11-14T05:49:50.098Z,32.20
2022-11-14T05:52:35.164Z,31.07
2022-11-14T05:55:24.573Z,32.03
2022-11-14T05:58:10.226Z,32.03
2022-11-14T06:01:06.837Z,34.57
2022-11-14T06:03:52.104Z,33.90
2022-11-14T06:06:37.134Z,33.33
2022-11-14T06:09:22.579Z,33.67
2022-11-14T06:12:08.247Z,32.90
2022-11-14T06:14:53.506Z,34.73
2022-11-14T06:17:38.704Z,32.93
2022-11-14T06:20:23.831Z,32.97
2022-11-14T06:23:09.162Z,32.57
2022-11-14T06:26:02.230Z,33.07
2022-11-14T06:28:49.569Z,29.83
2022-11-14T06:31:34.542Z,30.77
2022-11-14T06:34:19.791Z,30.87
2022-11-14T06:37:05.766Z,31.47
2022-11-14T06:39:51.180Z,34.83
2022-11-14T06:42:36.452Z,30.90
2022-11-14T06:45:21.710Z,31.60
2022-11-14T06:48:06.968Z,32.73
2022-11-14T06:50:56.244Z,32.43
2022-11-14T06:53:41.975Z,32.93
2022-11-14T06:56:27.317Z,33.33
2022-11-14T06:59:12.620Z,34.73
2022-11-14T07:01:57.596Z,33.97
2022-11-14T07:04:42.996Z,32.50
2022-11-14T07:07:28.963Z,34.90
2022-11-14T07:10:14.500Z,32.90
2022-11-14T07:12:59.397Z,33.50
2022-11-14T07:15:54.246Z,34.40
2022-11-14T07:18:39.501Z,33.30
2022-11-14T07:21:25.492Z,32.87
2022-11-14T07:24:10.414Z,32.10
2022-11-14T07:26:55.551Z,30.97
2022-11-14T07:29:40.360Z,34.20
2022-11-14T07:32:25.512Z,33.20
2022-11-14T07:35:10.950Z,34.60
2022-11-14T07:38:02.291Z,33.90
2022-11-14T07:40:59.669Z,34.43
2022-11-14T07:43:47.555Z,35.40
2022-11-14T07:46:32.815Z,35.63
2022-11-14T07:49:17.833Z,34.23
2022-11-14T07:52:02.959Z,35.67
2022-11-14T07:54:48.432Z,34.57
2022-11-14T07:57:37.042Z,35.57
2022-11-14T08:00:25.791Z,35.00
2022-11-14T08:03:11.076Z,34.83
2022-11-14T08:06:09.543Z,35.43
2022-11-14T08:08:54.701Z,33.63
2022-11-14T08:11:48.652Z,35.67
2022-11-14T08:14:34.859Z,36.40
2022-11-14T08:17:21.380Z,36.23
2022-11-14T08:20:08.145Z,37.10
2022-11-14T08:22:54.450Z,37.30
2022-11-14T08:25:39.839Z,36.90
2022-11-14T08:28:24.677Z,37.90
2022-11-14T08:31:10.802Z,36.60
2022-11-14T08:33:55.705Z,37.40
2022-11-14T08:36:40.937Z,37.23
2022-11-14T08:39:26.031Z,36.50
2022-11-14T08:42:11.227Z,37.93
2022-11-14T08:44:56.331Z,36.03
2022-11-14T08:47:41.307Z,34.70
2022-11-14T08:50:26.364Z,36.33
2022-11-14T08:53:11.422Z,35.93
2022-11-14T08:55:56.790Z,37.63
2022-11-14T08:58:42.000Z,35.80
2022-11-14T09:01:26.962Z,35.70
2022-11-14T09:04:12.169Z,35.60
2022-11-14T09:06:58.867Z,35.20
2022-11-14T09:09:44.597Z,35.20
2022-11-14T09:12:29.707Z,33.47
2022-11-14T09:15:15.198Z,33.83
2022-11-14T09:18:00.138Z,32.90
2022-11-14T09:20:45.089Z,34.70
2022-11-14T09:23:30.670Z,35.27
2022-11-14T09:26:16.302Z,35.73
2022-11-14T09:29:02.113Z,35.30
2022-11-14T09:31:47.252Z,36.43
2022-11-14T09:34:32.369Z,36.73
2022-11-14T09:37:17.507Z,36.27
2022-11-14T09:40:03.704Z,36.40
2022-11-14T09:43:25.329Z,37.90
2022-11-14T09:46:37.780Z,35.53
2022-11-14T09:49:35.230Z,35.33
2022-11-14T09:52:33.645Z,35.50
2022-11-14T09:55:21.254Z,34.93
2022-11-14T09:58:15.672Z,34.80
2022-11-14T10:01:09.750Z,33.67
2022-11-14T10:04:28.425Z,34.67
2022-11-14T10:07:45.403Z,34.13
2022-11-14T10:10:45.809Z,29.83
2022-11-14T10:13:59.710Z,29.60
2022-11-14T10:16:58.166Z,29.23
2022-11-14T10:20:17.684Z,31.03
2022-11-14T10:23:18.216Z,30.20
2022-11-14T10:26:23.374Z,30.90
2022-11-14T10:29:27.133Z,29.27
2022-11-14T10:32:36.915Z,31.63
2022-11-14T10:35:46.861Z,32.07
2022-11-14T10:38:46.417Z,30.20
2022-11-14T10:41:55.670Z,29.83
2022-11-14T10:44:50.987Z,29.97
2022-11-14T10:47:41.060Z,29.97
2022-11-14T10:50:48.149Z,28.67
2022-11-14T10:53:35.803Z,28.93
2022-11-14T10:56:21.462Z,29.77
2022-11-14T10:59:08.854Z,28.63
2022-11-14T11:01:56.336Z,30.50
2022-11-14T11:04:43.315Z,30.17
2022-11-14T11:07:54.734Z,26.97
2022-11-14T11:11:03.935Z,27.50
2022-11-14T11:13:55.787Z,27.00
2022-11-14T11:16:40.961Z,25.47
2022-11-14T11:19:27.228Z,26.33
2022-11-14T11:22:36.217Z,25.07
2022-11-14T11:25:30.382Z,26.27
2022-11-14T11:28:20.756Z,27.73
2022-11-14T11:31:11.153Z,26.73
2022-11-14T11:34:02.663Z,26.97
2022-11-14T11:36:55.822Z,26.17
2022-11-14T11:39:48.056Z,27.73
2022-11-14T11:43:37.248Z,29.27
2022-11-14T11:46:42.761Z,28.67
2022-11-14T11:49:30.475Z,26.53
2022-11-14T11:52:34.161Z,26.07
2022-11-14T11:55:25.477Z,27.13
2022-11-14T11:58:41.115Z,27.33
2022-11-14T12:01:26.452Z,24.93
2022-11-14T12:04:11.393Z,25.07
2022-11-14T12:07:12.507Z,24.87
2022-11-14T12:10:10.859Z,24.80
2022-11-14T12:13:33.619Z,26.87
2022-11-14T12:16:58.240Z,25.47
2022-11-14T12:20:29.910Z,25.97
2022-11-14T12:23:58.404Z,23.43
2022-11-14T12:26:52.082Z,24.70
2022-11-14T12:29:51.933Z,25.47
2022-11-14T12:32:42.367Z,25.10
2022-11-14T12:35:35.838Z,24.17
2022-11-14T12:38:22.617Z,24.50
2022-11-14T12:41:08.685Z,24.13
2022-11-14T12:43:55.985Z,24.13
2022-11-14T12:47:13.609Z,23.77
2022-11-14T12:50:00.657Z,23.13
2022-11-14T12:52:48.907Z,22.87
2022-11-14T12:55:43.873Z,23.03
2022-11-14T12:58:36.210Z,23.40
2022-11-14T13:01:30.480Z,22.83
2022-11-14T13:04:32.549Z,23.23
2022-11-14T13:07:34.500Z,22.30
2022-11-14T13:10:31.628Z,21.63
2022-11-14T13:13:36.485Z,22.70
2022-11-14T13:16:48.423Z,23.67
2022-11-14T13:19:52.011Z,22.93
2022-11-14T13:22:45.457Z,24.27
2022-11-14T13:25:30.997Z,23.40
2022-11-14T13:28:37.891Z,22.13
2022-11-14T13:31:45.879Z,20.70
2022-11-14T13:34:38.504Z,21.43
2022-11-14T13:38:00.741Z,20.13
2022-11-14T13:40:51.705Z,20.10
2022-11-14T13:44:01.415Z,22.33
2022-11-14T13:47:08.261Z,22.10
2022-11-14T13:49:59.279Z,20.90
2022-11-14T13:52:48.862Z,22.43
2022-11-14T13:55:58.841Z,22.30
2022-11-14T13:58:56.305Z,21.33
2022-11-14T14:01:54.593Z,24.10
2022-11-14T14:05:00.990Z,23.30
2022-11-14T14:08:00.809Z,24.27
2022-11-14T14:11:00.718Z,26.20
2022-11-14T14:13:57.667Z,24.97
2022-11-14T14:16:58.710Z,27.23
2022-11-14T14:20:00.084Z,24.47
2022-11-14T14:23:16.862Z,26.47
2022-11-14T14:26:34.639Z,24.03
2022-11-14T14:29:45.956Z,25.63
2022-11-14T14:32:30.950Z,26.27
2022-11-14T14:35:39.077Z,26.03
2022-11-14T14:38:28.291Z,24.93
2022-11-14T14:41:18.043Z,24.80
2022-11-14T14:44:03.029Z,25.47
2022-11-14T14:46:48.239Z,26.27
2022-11-14T14:49:37.677Z,24.80
2022-11-14T14:52:30.728Z,26.57
2022-11-14T14:55:30.420Z,25.60
2022-11-14T14:58:21.992Z,27.17
2022-11-14T15:01:15.886Z,25.97
2022-11-14T15:04:06.693Z,27.27
2022-11-14T15:06:53.470Z,26.97
2022-11-14T15:09:38.776Z,27.27
2022-11-14T15:12:26.065Z,27.33
2022-11-14T15:15:16.682Z,27.73
2022-11-14T15:18:07.398Z,27.03
2022-11-14T15:21:14.066Z,27.57
2022-11-14T15:24:18.601Z,26.67
2022-11-14T15:27:10.136Z,27.07
2022-11-14T15:30:00.689Z,27.93
2022-11-14T15:32:57.321Z,25.80
2022-11-14T15:35:42.738Z,27.63
2022-11-14T15:38:44.669Z,27.37
2022-11-14T15:41:33.855Z,25.90
2022-11-14T15:44:34.619Z,27.53
2022-11-14T15:47:29.013Z,26.03
2022-11-14T15:50:13.770Z,27.53
2022-11-14T15:53:01.969Z,26.83
2022-11-14T15:55:47.325Z,27.00
2022-11-14T15:58:32.979Z,27.27
2022-11-14T16:01:23.759Z,28.60
2022-11-14T16:04:14.348Z,27.57
2022-11-14T16:06:59.242Z,27.97
2022-11-14T16:09:45.148Z,27.83
2022-11-14T16:12:30.261Z,26.97
2022-11-14T16:15:16.561Z,27.70
2022-11-14T16:18:04.594Z,27.83
2022-11-14T16:20:51.376Z,27.77
2022-11-14T16:23:36.609Z,29.77
2022-11-14T16:26:21.863Z,29.13
2022-11-14T16:29:08.884Z,31.23
2022-11-14T16:31:55.151Z,29.27
2022-11-14T16:34:40.298Z,30.00
2022-11-14T16:37:25.599Z,30.00
2022-11-14T16:40:21.436Z,29.27
2022-11-14T16:43:06.575Z,29.10
2022-11-14T16:45:51.426Z,30.07
2022-11-14T16:48:36.411Z,30.43
2022-11-14T16:51:47.047Z,30.87
2022-11-14T16:54:26.449Z,31.33
2022-11-14T16:57:12.023Z,31.67
2022-11-14T16:59:58.084Z,31.47
2022-11-14T17:02:44.020Z,31.73
2022-11-14T17:05:28.977Z,31.13
2022-11-14T17:08:15.728Z,31.80
2022-11-14T17:11:00.925Z,29.47
2022-11-14T17:13:46.641Z,30.93
2022-11-14T17:16:31.833Z,30.40
2022-11-14T17:19:16.778Z,31.63
2022-11-14T17:22:01.826Z,31.77
2022-11-14T17:24:47.121Z,32.17
2022-11-14T17:27:32.170Z,32.23
2022-11-14T17:30:18.360Z,31.37
2022-11-14T17:33:03.183Z,32.33
2022-11-14T17:35:48.513Z,31.50
2022-11-14T17:38:35.217Z,31.07
2022-11-14T17:41:20.656Z,32.33
2022-11-14T17:44:05.498Z,32.67
2022-11-14T17:46:50.588Z,31.40
2022-11-14T17:49:35.635Z,33.90
2022-11-14T17:52:21.440Z,33.70
2022-11-14T17:55:07.326Z,34.23
2022-11-14T17:57:52.382Z,33.53
2022-11-14T18:00:37.514Z,33.67
2022-11-14T18:03:22.647Z,33.87
2022-11-14T18:06:09.890Z,32.37
2022-11-14T18:08:54.833Z,32.00
2022-11-14T18:11:39.844Z,32.60
2022-11-14T18:14:25.058Z,32.80
2022-11-14T18:17:13.142Z,32.33
2022-11-14T18:20:01.512Z,30.40
2022-11-14T18:22:46.541Z,32.57
2022-11-14T18:25:31.708Z,31.30
2022-11-14T18:28:17.061Z,32.23
2022-11-14T18:31:04.489Z,32.73
2022-11-14T18:33:50.348Z,32.87
2022-11-14T18:36:35.286Z,33.57
2022-11-14T18:39:20.586Z,32.13
2022-11-14T18:42:05.903Z,31.17
2022-11-14T18:44:51.192Z,31.30
2022-11-14T18:47:36.589Z,30.20
2022-11-14T18:50:21.806Z,29.83
2022-11-14T18:53:07.137Z,29.13
2022-11-14T18:55:53.200Z,28.50
2022-11-14T18:58:41.932Z,29.37
2022-11-14T19:01:30.050Z,27.50
2022-11-14T19:04:17.334Z,28.10
2022-11-14T19:07:02.633Z,26.77
2022-11-14T19:09:48.341Z,27.50
2022-11-14T19:12:33.681Z,27.57
2022-11-14T19:15:18.686Z,26.90
2022-11-14T19:18:03.888Z,27.57
2022-11-14T19:20:57.233Z,27.73
2022-11-14T19:23:42.126Z,27.17
2022-11-14T19:26:28.160Z,26.47
2022-11-14T19:29:13.781Z,26.33
2022-11-14T19:31:59.126Z,27.00
2022-11-14T19:34:45.331Z,26.47
2022-11-14T19:37:30.384Z,27.87
2022-11-14T19:40:15.444Z,25.60
2022-11-14T19:43:03.937Z,26.43
2022-11-14T19:45:48.947Z,25.03
2022-11-14T19:48:35.385Z,26.27
2022-11-14T19:51:22.289Z,24.83
2022-11-14T19:54:09.948Z,25.00
2022-11-14T19:56:55.348Z,24.40
2022-11-14T19:59:40.298Z,25.33
2022-11-14T20:02:25.803Z,25.37
2022-11-14T20:05:11.539Z,24.13
2022-11-14T20:07:56.608Z,25.47
2022-11-14T20:10:47.585Z,24.57
2022-11-14T20:13:35.475Z,22.83
2022-11-14T20:16:23.372Z,23.33
2022-11-14T20:19:08.750Z,23.43
2022-11-14T20:21:53.881Z,22.90
2022-11-14T20:24:39.085Z,22.90
2022-11-14T20:27:24.146Z,22.87
2022-11-14T20:30:09.761Z,23.20
2022-11-14T20:32:54.814Z,22.80
2022-11-14T20:35:40.084Z,23.00
2022-11-14T20:38:25.181Z,22.33
2022-11-14T20:41:12.305Z,21.57
2022-11-14T20:43:57.560Z,21.93
2022-11-14T20:46:42.907Z,23.70
2022-11-14T20:49:28.117Z,22.60
2022-11-14T20:52:16.344Z,22.13
2022-11-14T20:55:05.172Z,22.33
2022-11-14T20:57:54.040Z,22.63
2022-11-14T21:00:39.189Z,22.00
2022-11-14T21:03:24.009Z,21.57
2022-11-14T21:06:11.604Z,21.17
2022-11-14T21:08:56.356Z,21.57
2022-11-14T21:11:41.402Z,20.37
2022-11-14T21:14:26.916Z,21.20
2022-11-14T21:17:11.634Z,20.80
2022-11-14T21:19:56.542Z,22.17
2022-11-14T21:22:41.561Z,20.87
2022-11-14T21:25:26.922Z,21.50
2022-11-14T21:28:11.908Z,20.07
2022-11-14T21:30:58.571Z,20.33
2022-11-14T21:33:44.623Z,20.30
2022-11-14T21:36:44.536Z,20.27
2022-11-14T21:39:31.012Z,19.60
2022-11-14T21:42:18.602Z,21.63
2022-11-14T21:45:05.406Z,21.60
2022-11-14T21:47:50.753Z,19.90
2022-11-14T21:50:35.659Z,19.17
2022-11-14T21:53:20.848Z,19.43
2022-11-14T21:56:19.660Z,18.57
2022-11-14T21:59:16.068Z,19.70
2022-11-14T22:02:20.420Z,19.83
2022-11-14T22:05:06.387Z,19.37
2022-11-14T22:07:51.475Z,19.07
2022-11-14T22:10:36.643Z,19.37
2022-11-14T22:13:21.860Z,19.00
2022-11-14T22:16:08.765Z,19.60
2022-11-14T22:18:58.052Z,19.30
2022-11-14T22:21:46.844Z,19.07
2022-11-14T22:24:31.986Z,18.97
2022-11-14T22:27:17.181Z,19.77
2022-11-14T22:30:02.395Z,19.00
2022-11-14T22:32:47.342Z,17.77
2022-11-14T22:35:35.233Z,18.17
2022-11-14T22:38:20.709Z,20.70
2022-11-14T22:41:09.624Z,18.23
2022-11-14T22:43:55.798Z,19.30
2022-11-14T22:46:40.990Z,18.33
2022-11-14T22:49:25.851Z,17.90
2022-11-14T22:52:11.121Z,17.77
2022-11-14T22:54:56.128Z,18.00
2022-11-14T22:57:41.389Z,17.10
2022-11-14T23:00:26.557Z,17.00
2022-11-14T23:04:02.474Z,18.07
2022-11-14T23:06:52.833Z,17.43
2022-11-14T23:09:37.996Z,17.33
2022-11-14T23:12:23.360Z,16.33
2022-11-14T23:15:09.704Z,17.00
2022-11-14T23:17:55.283Z,16.87
2022-11-14T23:20:46.889Z,16.43
2022-11-14T23:23:32.975Z,16.20
2022-11-14T23:26:26.609Z,15.50
2022-11-14T23:29:14.185Z,17.30
2022-11-14T23:31:59.622Z,16.73
2022-11-14T23:34:44.763Z,15.93
2022-11-14T23:37:29.703Z,15.20
2022-11-14T23:40:15.175Z,15.63
2022-11-14T23:43:00.585Z,15.83
2022-11-14T23:45:48.220Z,16.13
2022-11-14T23:48:33.409Z,15.70
2022-11-14T23:51:18.390Z,14.70
2022-11-14T23:54:03.474Z,16.10
2022-11-14T23:56:48.445Z,15.13
2022-11-14T23:59:33.636Z,17.17
